createdAt,value
2024-05-09T00:00:35.771Z,64.68
2024-05-09T00:03:01.744Z,64.95
2024-05-09T00:05:32.523Z,65.53
2024-05-09T00:08:03.296Z,65.61
2024-05-09T00:10:37.428Z,66.11
2024-05-09T00:13:06.644Z,65.95
2024-05-09T00:15:37.568Z,66.16
2024-05-09T00:18:08.992Z,66.18
2024-05-09T00:20:41.202Z,65.86
2024-05-09T00:23:14.401Z,66.21
2024-05-09T00:25:45.175Z,66.94
2024-05-09T00:28:15.852Z,66.89
2024-05-09T00:30:46.494Z,66.91
2024-05-09T00:33:17.393Z,67.20
2024-05-09T00:35:48.211Z,67.33
2024-05-09T00:38:18.701Z,67.72
2024-05-09T00:40:49.291Z,67.75
2024-05-09T00:43:19.876Z,67.76
2024-05-09T00:45:50.395Z,67.71
2024-05-09T00:48:21.756Z,67.86
2024-05-09T00:50:54.259Z,67.68
2024-05-09T00:53:26.031Z,67.53
2024-05-09T00:55:58.154Z,67.67
2024-05-09T00:58:30.414Z,67.55
2024-05-09T01:01:02.401Z,67.66
2024-05-09T01:03:33.305Z,67.49
2024-05-09T01:06:04.070Z,67.68
2024-05-09T01:08:34.758Z,67.84
2024-05-09T01:11:05.543Z,68.04
2024-05-09T01:13:36.031Z,68.36
2024-05-09T01:16:07.049Z,68.24
2024-05-09T01:18:37.598Z,68.38
2024-05-09T01:21:09.426Z,68.41
2024-05-09T01:23:40.056Z,68.34
2024-05-09T01:26:10.482Z,68.68
2024-05-09T01:28:40.999Z,68.82
2024-05-09T01:31:13.300Z,68.99
2024-05-09T01:33:44.183Z,68.74
2024-05-09T01:36:15.366Z,69.05
2024-05-09T01:38:45.997Z,68.97
2024-05-09T01:41:16.584Z,69.33
2024-05-09T01:43:47.129Z,69.29
2024-05-09T01:46:19.282Z,69.63
2024-05-09T01:48:49.956Z,69.54
2024-05-09T01:51:20.469Z,69.98
2024-05-09T01:53:52.882Z,70.11
2024-05-09T01:56:23.414Z,70.24
2024-05-09T01:58:53.896Z,70.54
2024-05-09T02:01:24.433Z,70.70
2024-05-09T02:03:55.163Z,70.44
2024-05-09T02:06:25.771Z,70.80
2024-05-09T02:08:56.229Z,70.54
2024-05-09T02:11:27.006Z,70.36
2024-05-09T02:13:57.656Z,71.00
2024-05-09T02:16:28.140Z,71.27
2024-05-09T02:18:58.762Z,71.20
2024-05-09T02:21:29.249Z,71.86
2024-05-09T02:23:59.705Z,71.69
2024-05-09T02:26:30.347Z,71.53
2024-05-09T02:29:00.951Z,70.77
2024-05-09T02:31:31.426Z,70.85
2024-05-09T02:34:02.131Z,71.51
2024-05-09T02:36:32.889Z,71.76
2024-05-09T02:39:03.403Z,72.04
2024-05-09T02:41:34.256Z,71.98
2024-05-09T02:44:05.051Z,72.22
2024-05-09T02:46:35.477Z,72.37
2024-05-09T02:49:06.164Z,72.48
2024-05-09T02:51:36.870Z,72.66
2024-05-09T02:54:07.750Z,73.19
2024-05-09T02:56:38.362Z,73.02
2024-05-09T02:59:08.993Z,73.17
2024-05-09T03:01:39.554Z,73.34
2024-05-09T03:04:10.105Z,73.52
2024-05-09T03:06:44.225Z,73.71
2024-05-09T03:09:14.877Z,73.98
2024-05-09T03:11:45.832Z,73.90
2024-05-09T03:14:19.753Z,73.96
2024-05-09T03:16:50.277Z,73.96
2024-05-09T03:19:21.276Z,74.18
2024-05-09T03:21:52.025Z,74.19
2024-05-09T03:24:22.602Z,74.19
2024-05-09T03:26:53.164Z,74.49
2024-05-09T03:29:23.719Z,74.35
2024-05-09T03:31:54.393Z,74.82
2024-05-09T03:34:25.086Z,74.44
2024-05-09T03:36:55.627Z,74.74
2024-05-09T03:39:26.135Z,74.74
2024-05-09T03:41:56.774Z,74.95
2024-05-09T03:44:27.389Z,74.53
2024-05-09T03:46:58.032Z,74.73
2024-05-09T03:49:28.723Z,74.96
2024-05-09T03:52:00.835Z,74.83
2024-05-09T03:54:32.182Z,74.74
2024-05-09T03:57:02.906Z,74.74
2024-05-09T03:59:33.408Z,74.44
2024-05-09T04:02:05.594Z,74.66
2024-05-09T04:04:36.258Z,74.53
2024-05-09T04:07:06.744Z,74.66
2024-05-09T04:09:37.119Z,74.81
2024-05-09T04:12:09.086Z,74.54
2024-05-09T04:14:39.724Z,74.07
2024-05-09T04:17:10.292Z,74.46
2024-05-09T04:19:40.924Z,73.79
2024-05-09T04:22:11.516Z,73.82
2024-05-09T04:24:42.049Z,73.57
2024-05-09T04:27:12.647Z,73.66
2024-05-09T04:29:43.178Z,73.87
2024-05-09T04:32:13.785Z,73.55
2024-05-09T04:34:44.414Z,73.39
2024-05-09T04:37:14.925Z,73.59
2024-05-09T04:39:45.399Z,72.40
2024-05-09T04:42:15.933Z,72.59
2024-05-09T04:44:46.490Z,72.74
2024-05-09T04:47:17.041Z,72.74
2024-05-09T04:49:47.593Z,71.74
2024-05-09T04:52:18.084Z,71.96
2024-05-09T04:54:48.622Z,71.31
2024-05-09T04:57:19.188Z,70.42
2024-05-09T04:59:51.213Z,64.13
2024-05-09T05:02:21.793Z,55.57
2024-05-09T05:04:52.460Z,48.20
2024-05-09T05:07:22.997Z,43.18
2024-05-09T05:09:53.492Z,40.36
2024-05-09T05:12:41.432Z,41.60
2024-05-09T05:15:12.090Z,43.35
2024-05-09T05:17:42.730Z,40.58
2024-05-09T05:20:17.859Z,38.19
2024-05-09T05:22:45.578Z,35.82
2024-05-09T05:25:16.078Z,36.56
2024-05-09T05:27:46.590Z,41.39
2024-05-09T05:30:21.499Z,40.34
2024-05-09T05:32:49.403Z,40.41
2024-05-09T05:35:20.128Z,38.69
2024-05-09T05:37:50.638Z,43.61
2024-05-09T05:40:28.506Z,37.90
2024-05-09T05:42:53.551Z,40.52
2024-05-09T05:45:24.099Z,35.35
2024-05-09T05:47:55.483Z,33.40
2024-05-09T05:50:32.609Z,32.18
2024-05-09T05:52:58.776Z,31.40
2024-05-09T05:55:29.240Z,30.86
2024-05-09T05:58:00.489Z,30.34
2024-05-09T06:00:37.860Z,29.33
2024-05-09T06:03:03.353Z,28.73
2024-05-09T06:05:34.999Z,32.53
2024-05-09T06:08:05.974Z,31.83
2024-05-09T06:10:39.760Z,28.74
2024-05-09T06:13:14.023Z,28.27
2024-05-09T06:15:45.046Z,26.91
2024-05-09T06:18:16.030Z,26.44
2024-05-09T06:20:46.742Z,25.73
2024-05-09T06:23:17.347Z,25.81
2024-05-09T06:25:47.931Z,25.48
2024-05-09T06:28:18.488Z,26.39
2024-05-09T06:30:49.009Z,25.53
2024-05-09T06:33:19.785Z,25.51
2024-05-09T06:35:50.489Z,29.74
2024-05-09T06:38:21.152Z,28.54
2024-05-09T06:40:51.658Z,29.32
2024-05-09T06:43:22.460Z,35.89
2024-05-09T06:45:53.204Z,38.85
2024-05-09T06:48:47.794Z,41.12
2024-05-09T06:51:20.221Z,43.12
2024-05-09T06:53:50.641Z,44.92
2024-05-09T06:56:21.184Z,45.90
2024-05-09T06:58:51.643Z,47.13
2024-05-09T07:01:22.170Z,47.24
2024-05-09T07:03:52.725Z,49.09
2024-05-09T07:06:23.355Z,49.62
2024-05-09T07:08:53.855Z,50.31
2024-05-09T07:11:24.742Z,51.43
2024-05-09T07:13:55.243Z,51.36
2024-05-09T07:16:25.808Z,52.10
2024-05-09T07:18:56.459Z,52.70
2024-05-09T07:21:27.231Z,53.25
2024-05-09T07:23:57.836Z,53.96
2024-05-09T07:26:28.377Z,52.99
2024-05-09T07:28:58.992Z,53.32
2024-05-09T07:31:30.568Z,52.62
2024-05-09T07:34:01.164Z,53.62
2024-05-09T07:36:31.630Z,52.50
2024-05-09T07:39:02.154Z,52.82
2024-05-09T07:41:32.940Z,53.21
2024-05-09T07:44:03.776Z,53.11
2024-05-09T07:54:12.977Z,51.99
2024-05-09T07:56:43.815Z,52.38
2024-05-09T07:59:14.708Z,52.54
2024-05-09T08:01:45.421Z,53.06
2024-05-09T08:04:16.223Z,52.51
2024-05-09T08:06:59.184Z,52.45
2024-05-09T08:09:31.290Z,52.05
2024-05-09T08:12:01.785Z,51.30
2024-05-09T08:14:32.530Z,50.76
2024-05-09T08:17:03.297Z,50.70
2024-05-09T08:19:34.798Z,50.33
2024-05-09T08:22:07.468Z,50.51
2024-05-09T08:24:37.978Z,50.03
2024-05-09T08:27:08.600Z,50.73
2024-05-09T08:29:39.751Z,49.54
2024-05-09T08:32:12.031Z,50.55
2024-05-09T08:34:42.802Z,49.80
2024-05-09T08:37:21.416Z,49.38
2024-05-09T08:39:45.657Z,49.52
2024-05-09T08:45:14.225Z,48.92
2024-05-09T08:47:47.177Z,49.00
2024-05-09T08:50:28.895Z,48.36
2024-05-09T08:52:53.809Z,48.85
2024-05-09T08:55:25.517Z,48.62
2024-05-09T08:57:56.628Z,48.37
2024-05-09T09:00:34.183Z,47.06
2024-05-09T09:03:02.624Z,47.28
2024-05-09T09:05:37.206Z,47.08
2024-05-09T09:08:09.065Z,47.01
2024-05-09T09:10:43.452Z,46.78
2024-05-09T09:13:14.386Z,46.49
2024-05-09T09:15:56.330Z,45.52
2024-05-09T09:18:34.341Z,44.51
2024-05-09T09:21:08.569Z,45.07
2024-05-09T09:23:40.930Z,45.13
2024-05-09T09:26:14.536Z,45.58
2024-05-09T09:28:49.579Z,45.28
2024-05-09T09:31:21.754Z,45.24
2024-05-09T09:33:52.950Z,44.12
2024-05-09T09:36:23.580Z,43.32
2024-05-09T09:38:55.346Z,43.12
2024-05-09T09:41:29.130Z,43.69
2024-05-09T09:44:01.351Z,43.92
2024-05-09T09:46:34.106Z,43.76
2024-05-09T09:49:09.453Z,43.92
2024-05-09T09:51:49.092Z,42.88
2024-05-09T09:54:21.951Z,42.91
2024-05-09T09:56:55.364Z,42.24
2024-05-09T09:59:26.936Z,42.63
2024-05-09T10:01:58.388Z,42.62
2024-05-09T10:04:29.086Z,42.06
2024-05-09T10:07:02.088Z,42.69
2024-05-09T10:09:33.962Z,41.62
2024-05-09T10:12:11.624Z,41.72
2024-05-09T10:14:54.253Z,41.35
2024-05-09T10:17:25.043Z,41.81
2024-05-09T10:20:14.928Z,40.98
2024-05-09T10:22:51.866Z,40.77
2024-05-09T10:25:23.547Z,41.34
2024-05-09T10:27:57.682Z,41.06
2024-05-09T10:30:34.140Z,40.99
2024-05-09T10:33:01.410Z,40.95
2024-05-09T10:35:32.775Z,39.67
2024-05-09T10:38:06.314Z,40.45
2024-05-09T10:40:39.228Z,40.41
2024-05-09T10:43:12.753Z,40.21
2024-05-09T10:45:43.314Z,40.15
2024-05-09T10:48:13.827Z,39.83
2024-05-09T10:50:45.900Z,40.40
2024-05-09T10:53:17.127Z,40.20
2024-05-09T10:55:57.968Z,40.54
2024-05-09T10:58:30.524Z,40.30
2024-05-09T11:01:05.421Z,39.31
2024-05-09T11:03:33.902Z,40.58
2024-05-09T11:06:06.327Z,39.68
2024-05-09T11:08:38.211Z,39.45
2024-05-09T11:11:10.330Z,39.20
2024-05-09T11:13:41.989Z,39.92
2024-05-09T11:16:21.044Z,40.07
2024-05-09T11:18:59.483Z,40.49
2024-05-09T11:21:30.158Z,38.87
2024-05-09T11:24:01.074Z,40.23
2024-05-09T11:26:33.443Z,39.91
2024-05-09T11:29:03.900Z,39.73
2024-05-09T11:31:37.000Z,40.36
2024-05-09T11:34:07.593Z,41.53
2024-05-09T11:36:38.266Z,40.29
2024-05-09T11:39:08.876Z,40.68
2024-05-09T11:41:39.700Z,40.07
2024-05-09T11:44:10.160Z,40.23
2024-05-09T11:46:41.770Z,39.85
2024-05-09T11:49:12.788Z,39.93
2024-05-09T11:51:43.612Z,39.01
2024-05-09T11:54:16.466Z,38.77
2024-05-09T11:56:48.562Z,38.83
2024-05-09T11:59:19.056Z,38.16
2024-05-09T12:01:49.692Z,38.14
2024-05-09T12:04:20.464Z,38.40
2024-05-09T12:06:51.144Z,38.14
2024-05-09T12:09:21.890Z,38.29
2024-05-09T12:11:52.482Z,38.65
2024-05-09T12:14:22.956Z,38.04
2024-05-09T12:16:53.595Z,37.96
2024-05-09T12:19:24.077Z,37.58
2024-05-09T12:21:54.734Z,37.87
2024-05-09T12:24:25.214Z,38.01
2024-05-09T12:26:55.820Z,37.65
2024-05-09T12:29:26.458Z,38.11
2024-05-09T12:31:57.002Z,37.77
2024-05-09T12:34:27.604Z,37.78
2024-05-09T12:36:58.273Z,36.96
2024-05-09T12:39:28.875Z,37.59
2024-05-09T12:41:59.403Z,38.21
2024-05-09T12:44:29.924Z,37.70
2024-05-09T12:47:01.189Z,37.83
2024-05-09T12:49:32.053Z,37.42
2024-05-09T12:52:03.476Z,38.35
2024-05-09T12:54:34.908Z,38.51
2024-05-09T12:57:05.758Z,38.28
2024-05-09T12:59:36.667Z,38.19
2024-05-09T13:02:07.501Z,37.74
2024-05-09T13:04:38.262Z,37.48
2024-05-09T13:07:09.366Z,37.03
2024-05-09T13:09:39.953Z,37.74
2024-05-09T13:12:10.434Z,37.79
2024-05-09T13:14:40.865Z,38.46
2024-05-09T13:17:11.448Z,37.64
2024-05-09T13:19:41.916Z,37.26
2024-05-09T13:22:12.543Z,37.76
2024-05-09T13:24:45.850Z,37.25
2024-05-09T13:27:16.420Z,36.96
2024-05-09T13:29:46.921Z,36.52
2024-05-09T13:32:17.456Z,36.75
2024-05-09T13:34:47.965Z,37.17
2024-05-09T13:37:18.598Z,37.04
2024-05-09T13:39:49.343Z,37.55
2024-05-09T13:42:19.906Z,36.96
2024-05-09T13:44:50.699Z,36.88
2024-05-09T13:47:22.115Z,39.66
2024-05-09T13:49:52.721Z,38.73
2024-05-09T13:52:23.340Z,38.90
2024-05-09T13:54:55.440Z,39.61
2024-05-09T13:57:26.650Z,39.17
2024-05-09T13:59:57.243Z,39.99
2024-05-09T14:02:27.955Z,39.81
2024-05-09T14:04:58.817Z,40.17
2024-05-09T14:07:29.342Z,39.47
2024-05-09T14:10:00.163Z,39.94
2024-05-09T14:12:30.808Z,38.47
2024-05-09T14:15:01.245Z,38.22
2024-05-09T14:17:32.276Z,38.36
2024-05-09T14:20:03.144Z,38.79
2024-05-09T14:22:35.565Z,39.24
2024-05-09T14:25:07.232Z,38.34
2024-05-09T14:27:38.119Z,37.54
2024-05-09T14:30:15.058Z,37.21
2024-05-09T14:32:41.915Z,37.54
2024-05-09T14:35:12.492Z,37.41
2024-05-09T14:37:43.123Z,38.02
2024-05-09T14:40:29.825Z,38.30
2024-05-09T14:42:47.297Z,37.61
2024-05-09T14:45:18.009Z,38.27
2024-05-09T14:47:48.721Z,38.94
2024-05-09T14:50:27.851Z,38.28
2024-05-09T14:52:52.958Z,37.95
2024-05-09T14:55:24.808Z,39.51
2024-05-09T14:57:55.562Z,38.57
2024-05-09T15:00:33.063Z,38.63
2024-05-09T15:02:59.078Z,38.62
2024-05-09T15:05:29.857Z,38.13
2024-05-09T15:08:00.563Z,37.34
2024-05-09T15:10:35.236Z,38.03
2024-05-09T15:13:06.595Z,38.26
2024-05-09T15:15:37.822Z,38.91
2024-05-09T15:18:08.587Z,37.68
2024-05-09T15:20:40.254Z,38.25
2024-05-09T15:23:10.881Z,38.39
2024-05-09T15:25:41.733Z,38.50
2024-05-09T15:28:12.500Z,37.44
2024-05-09T15:30:46.310Z,38.15
2024-05-09T15:33:15.668Z,38.51
2024-05-09T15:35:47.526Z,37.76
2024-05-09T15:38:18.814Z,38.05
2024-05-09T15:40:49.564Z,37.99
2024-05-09T15:43:20.181Z,38.47
2024-05-09T15:45:51.039Z,38.56
2024-05-09T15:48:21.838Z,38.50
2024-05-09T15:50:52.298Z,38.79
2024-05-09T15:53:22.896Z,39.11
2024-05-09T15:55:53.524Z,38.56
2024-05-09T15:58:24.265Z,39.15
2024-05-09T16:00:55.108Z,39.48
2024-05-09T16:03:25.925Z,38.40
2024-05-09T16:05:58.369Z,39.90
2024-05-09T16:08:29.044Z,39.30
2024-05-09T16:10:59.688Z,39.83
2024-05-09T16:13:30.414Z,39.85
2024-05-09T16:16:01.249Z,39.93
2024-05-09T16:18:31.916Z,39.50
2024-05-09T16:21:02.505Z,39.31
2024-05-09T16:23:33.115Z,40.77
2024-05-09T16:26:03.765Z,39.48
2024-05-09T16:28:34.372Z,40.15
2024-05-09T16:31:05.088Z,39.96
2024-05-09T16:33:36.149Z,39.40
2024-05-09T16:36:07.317Z,39.94
2024-05-09T16:38:39.896Z,40.52
2024-05-09T16:41:10.324Z,39.33
2024-05-09T16:43:40.815Z,40.23
2024-05-09T16:46:11.620Z,40.34
2024-05-09T16:48:44.007Z,40.13
2024-05-09T16:51:14.711Z,40.35
2024-05-09T16:53:45.293Z,39.93
2024-05-09T16:56:15.907Z,39.89
2024-05-09T16:58:46.616Z,39.19
2024-05-09T17:01:17.196Z,39.46
2024-05-09T17:03:47.961Z,39.14
2024-05-09T17:06:20.194Z,39.24
2024-05-09T17:08:50.746Z,39.39
2024-05-09T17:11:21.297Z,39.70
2024-05-09T17:13:51.797Z,40.17
2024-05-09T17:16:22.500Z,40.04
2024-05-09T17:18:53.316Z,40.69
2024-05-09T17:21:23.864Z,41.02
2024-05-09T17:23:55.741Z,40.80
2024-05-09T17:26:26.286Z,40.44
2024-05-09T17:28:57.442Z,40.39
2024-05-09T17:31:28.014Z,40.66
2024-05-09T17:33:58.991Z,40.82
2024-05-09T17:36:29.657Z,40.52
2024-05-09T17:39:00.334Z,40.46
2024-05-09T17:41:30.789Z,40.94
2024-05-09T17:44:03.198Z,40.90
2024-05-09T17:46:34.139Z,41.30
2024-05-09T17:49:04.998Z,41.24
2024-05-09T17:51:38.282Z,41.16
2024-05-09T17:54:08.824Z,41.42
2024-05-09T17:56:39.340Z,41.80
2024-05-09T17:59:11.563Z,41.76
2024-05-09T18:01:42.189Z,42.02
2024-05-09T18:04:12.996Z,42.05
2024-05-09T18:06:43.692Z,42.85
2024-05-09T18:09:14.323Z,42.87
2024-05-09T18:11:45.689Z,42.93
2024-05-09T18:14:16.336Z,43.83
2024-05-09T18:16:47.143Z,44.09
2024-05-09T18:19:17.882Z,44.40
2024-05-09T18:21:49.408Z,45.09
2024-05-09T18:24:24.716Z,45.48
2024-05-09T18:26:55.367Z,45.44
2024-05-09T18:29:25.997Z,45.47
2024-05-09T18:31:56.655Z,45.73
2024-05-09T18:34:27.322Z,45.56
2024-05-09T18:36:59.255Z,45.90
2024-05-09T18:39:30.427Z,46.28
2024-05-09T18:42:01.773Z,46.55
2024-05-09T18:44:32.661Z,46.77
2024-05-09T18:47:04.018Z,47.14
2024-05-09T18:49:34.753Z,47.41
2024-05-09T18:52:05.659Z,47.81
2024-05-09T18:54:36.280Z,48.30
2024-05-09T18:57:06.892Z,48.67
2024-05-09T18:59:37.549Z,48.89
2024-05-09T19:02:08.307Z,49.05
2024-05-09T19:04:39.158Z,49.17
2024-05-09T19:07:10.087Z,49.23
2024-05-09T19:09:41.186Z,49.60
2024-05-09T19:12:11.759Z,49.87
2024-05-09T19:14:42.296Z,49.59
2024-05-09T19:17:13.085Z,50.33
2024-05-09T19:19:43.690Z,50.54
2024-05-09T19:22:14.247Z,50.63
2024-05-09T19:24:44.769Z,50.66
2024-05-09T19:27:15.386Z,50.26
2024-05-09T19:29:46.063Z,50.80
2024-05-09T19:32:16.575Z,50.82
2024-05-09T19:34:47.059Z,50.72
2024-05-09T19:37:17.559Z,50.75
2024-05-09T19:39:48.048Z,50.54
2024-05-09T19:42:19.136Z,50.66
2024-05-09T19:44:49.615Z,50.75
2024-05-09T19:47:20.201Z,51.20
2024-05-09T19:49:50.797Z,50.77
2024-05-09T19:52:21.358Z,50.41
2024-05-09T19:54:52.045Z,50.60
2024-05-09T19:57:22.538Z,50.47
2024-05-09T19:59:53.041Z,50.60
2024-05-09T20:02:23.652Z,50.57
2024-05-09T20:04:54.649Z,50.60
2024-05-09T20:07:25.283Z,50.59
2024-05-09T20:09:57.240Z,50.93
2024-05-09T20:12:27.953Z,50.41
2024-05-09T20:14:58.615Z,50.49
2024-05-09T20:17:29.287Z,50.76
2024-05-09T20:20:00.209Z,50.37
2024-05-09T20:22:32.380Z,50.67
2024-05-09T20:25:02.887Z,50.88
2024-05-09T20:27:33.556Z,50.77
2024-05-09T20:30:09.646Z,50.74
2024-05-09T20:32:37.144Z,51.04
2024-05-09T20:35:08.665Z,51.16
2024-05-09T20:37:40.883Z,51.18
2024-05-09T20:40:18.424Z,51.21
2024-05-09T20:42:46.221Z,51.48
2024-05-09T20:45:16.881Z,51.51
2024-05-09T20:47:47.440Z,51.75
2024-05-09T20:50:27.994Z,51.80
2024-05-09T20:52:50.995Z,52.35
2024-05-09T20:55:21.594Z,52.52
2024-05-09T20:57:53.214Z,53.09
2024-05-09T21:00:30.289Z,52.56
2024-05-09T21:02:56.241Z,52.53
2024-05-09T21:05:26.956Z,52.82
2024-05-09T21:07:57.602Z,52.73
2024-05-09T21:10:32.660Z,52.71
2024-05-09T21:13:00.378Z,53.21
2024-05-09T21:15:31.177Z,53.17
2024-05-09T21:18:02.210Z,53.27
2024-05-09T21:20:34.367Z,52.70
2024-05-09T21:23:05.529Z,53.26
2024-05-09T21:25:36.186Z,53.56
2024-05-09T21:28:07.094Z,53.64
2024-05-09T21:30:41.904Z,53.70
2024-05-09T21:33:11.635Z,53.66
2024-05-09T21:35:44.418Z,53.35
2024-05-09T21:38:16.112Z,53.74
2024-05-09T21:40:46.792Z,54.52
2024-05-09T21:43:17.685Z,54.27
2024-05-09T21:45:48.565Z,54.01
2024-05-09T21:48:19.553Z,54.27
2024-05-09T21:50:57.564Z,54.65
2024-05-09T21:53:24.674Z,54.80
2024-05-09T21:55:55.252Z,54.80
2024-05-09T21:58:26.019Z,54.89
2024-05-09T22:00:56.743Z,55.15
2024-05-09T22:03:27.428Z,54.89
2024-05-09T22:05:58.164Z,55.04
2024-05-09T22:08:28.641Z,55.04
2024-05-09T22:10:59.215Z,55.21
2024-05-09T22:13:29.748Z,55.36
2024-05-09T22:16:00.422Z,54.95
2024-05-09T22:18:31.175Z,55.13
2024-05-09T22:21:03.289Z,55.59
2024-05-09T22:23:33.796Z,55.56
2024-05-09T22:26:04.386Z,55.53
2024-05-09T22:28:34.950Z,55.54
2024-05-09T22:31:05.542Z,55.72
2024-05-09T22:33:36.258Z,55.72
2024-05-09T22:36:08.653Z,55.69
2024-05-09T22:38:40.761Z,55.86
2024-05-09T22:41:11.347Z,56.00
2024-05-09T22:43:41.857Z,56.12
2024-05-09T22:46:12.456Z,56.46
2024-05-09T22:48:43.332Z,56.67
2024-05-09T22:51:14.079Z,56.63
2024-05-09T22:53:45.024Z,56.72
2024-05-09T22:56:15.777Z,56.55
2024-05-09T22:58:46.468Z,56.56
2024-05-09T23:01:17.241Z,56.49
2024-05-09T23:03:48.428Z,56.49
2024-05-09T23:06:18.956Z,56.85
2024-05-09T23:08:49.406Z,56.87
2024-05-09T23:11:20.026Z,57.12
2024-05-09T23:13:50.474Z,57.44
2024-05-09T23:16:21.187Z,57.76
2024-05-09T23:18:51.930Z,57.85
2024-05-09T23:21:22.768Z,58.43
2024-05-09T23:23:53.349Z,58.45
2024-05-09T23:26:23.827Z,58.74
2024-05-09T23:28:54.288Z,58.33
2024-05-09T23:31:25.098Z,58.27
2024-05-09T23:33:55.949Z,58.14
2024-05-09T23:36:29.108Z,58.48
2024-05-09T23:38:59.750Z,58.01
2024-05-09T23:41:30.245Z,58.07
2024-05-09T23:44:00.873Z,58.23
2024-05-09T23:46:31.383Z,58.52
2024-05-09T23:49:02.192Z,58.79
2024-05-09T23:51:32.769Z,58.94
2024-05-09T23:54:03.512Z,58.98
2024-05-09T23:56:34.036Z,59.18
2024-05-09T23:59:04.833Z,59.18
